Time;durP1;ratioP1;P1;durP2;ratioP2;P2;SDS_P1;SDS_P2;PMS_P1;PMS_P2;Temp;Humidity;BMP_temperature;BMP_pressure;BME280_temperature;BME280_humidity;BME280_pressure;Samples;Min_cycle;Max_cycle;Signal;HPM_P1;HPM_P2
2022/01/24 00:02:16;;;;;;;;;43.25;39.50;;;;;5.92;62.50;102424.59;5075747;27;45444;-51
2022/01/24 00:04:42;;;;;;;;;45.50;37.50;;;;;5.84;63.01;102416.66;5074366;28;45367;-48
2022/01/24 00:07:07;;;;;;;;;39.50;34.75;;;;;5.72;62.84;102390.38;5075645;28;45479;-50
2022/01/24 00:09:33;;;;;;;;;41.75;37.25;;;;;5.87;62.97;102410.59;5075287;28;46138;-49
2022/01/24 00:12:04;;;;;;;;;39.25;37.25;;;;;5.85;62.78;102421.00;5073974;28;45421;-50
2022/01/24 00:17:10;;;;;;;;;29.75;27.50;;;;;5.78;63.26;102407.84;5075108;28;45387;-52
2022/01/24 00:27:48;;;;;;;;;35.00;34.50;;;;;5.70;63.52;102403.41;5078853;28;45457;-49
2022/01/24 00:30:15;;;;;;;;;39.25;36.50;;;;;5.69;63.40;102403.38;5077433;28;47291;-48
2022/01/24 00:32:41;;;;;;;;;40.00;38.50;;;;;5.68;63.51;102399.91;5078783;27;45451;-49
2022/01/24 00:35:06;;;;;;;;;36.25;34.00;;;;;5.64;63.37;102402.44;5078647;28;45433;-51
2022/01/24 00:37:33;;;;;;;;;39.50;36.50;;;;;5.65;63.33;102401.59;5078882;28;45673;-50
2022/01/24 00:39:59;;;;;;;;;32.00;29.00;;;;;5.66;63.53;102395.50;5078462;28;46329;-50
2022/01/24 00:48:09;;;;;;;;;41.75;37.25;;;;;5.59;63.63;102385.84;5069628;28;45625;-49
2022/01/24 00:56:11;;;;;;;;;36.25;32.50;;;;;5.51;63.52;102378.78;5068027;28;45600;-49
2022/01/24 00:58:36;;;;;;;;;41.50;39.00;;;;;5.51;63.72;102373.56;5078479;27;45354;-49
2022/01/24 01:01:04;;;;;;;;;43.00;39.00;;;;;5.50;64.15;102382.25;5078249;28;45420;-48
2022/01/24 01:03:30;;;;;;;;;39.25;37.50;;;;;5.49;64.06;102380.50;5078404;28;45436;-50
2022/01/24 01:06:05;;;;;;;;;43.00;38.00;;;;;5.47;63.77;102376.97;5078427;28;45430;-46
2022/01/24 01:19:29;;;;;;;;;41.75;39.00;;;;;5.38;64.41;102373.38;5078124;28;45572;-51
2022/01/24 01:21:55;;;;;;;;;43.50;39.00;;;;;5.39;64.23;102375.13;5073104;28;47146;-50
2022/01/24 01:24:21;;;;;;;;;40.75;37.50;;;;;5.38;64.08;102378.59;5061464;28;45757;-52
2022/01/24 01:26:53;;;;;;;;;43.75;36.50;;;;;5.38;63.89;102378.59;5078281;28;45465;-49
2022/01/24 01:29:32;;;;;;;;;46.25;40.25;;;;;5.42;64.13;102386.47;5078289;27;45377;-51
2022/01/24 01:32:52;;;;;;;;;41.75;40.00;;;;;5.39;64.29;102382.94;5077869;28;45521;-50
2022/01/24 01:35:11;;;;;;;;;51.75;42.50;;;;;5.38;64.98;102383.81;5070400;28;45523;-50
2022/01/24 01:40:42;;;;;;;;;47.00;39.25;;;;;5.19;64.54;102362.66;5077769;28;45467;-47
2022/01/24 01:56:26;;;;;;;;;38.25;35.50;;;;;5.31;64.15;102380.22;5077511;28;45381;-50
2022/01/24 01:58:51;;;;;;;;;38.75;35.75;;;;;5.20;64.16;102359.19;5077434;28;45921;-50
2022/01/24 02:01:17;;;;;;;;;38.75;34.00;;;;;5.25;64.36;102378.41;5077657;28;45364;-52
2022/01/24 02:03:42;;;;;;;;;50.00;41.50;;;;;5.23;64.59;102372.28;5077597;28;45348;-49
2022/01/24 02:06:07;;;;;;;;;46.25;40.50;;;;;5.20;64.63;102371.38;5077395;28;45315;-49
2022/01/24 02:08:33;;;;;;;;;39.00;37.50;;;;;5.23;64.55;102385.31;5076107;28;45465;-49
2022/01/24 02:11:00;;;;;;;;;40.50;37.00;;;;;5.23;64.23;102382.72;5077445;28;45561;-48
2022/01/24 02:13:27;;;;;;;;;40.50;38.00;;;;;5.16;64.59;102386.09;5077196;28;46487;-52
2022/01/24 02:24:30;;;;;;;;;49.75;36.50;;;;;5.05;64.51;102374.59;5042514;28;45968;-51
2022/01/24 02:26:57;;;;;;;;;46.00;41.75;;;;;4.98;64.81;102368.41;5056741;28;45471;-50
2022/01/24 02:29:44;;;;;;;;;43.00;38.00;;;;;5.00;65.17;102371.94;5056825;28;45433;-49
2022/01/24 02:32:08;;;;;;;;;48.75;39.00;;;;;4.94;65.30;102365.72;5058350;28;45638;-52
2022/01/24 02:34:39;;;;;;;;;41.75;39.00;;;;;4.97;65.45;102369.28;5076677;28;45572;-51
2022/01/24 02:37:11;;;;;;;;;42.25;36.25;;;;;4.95;64.77;102349.25;5076685;28;45507;-52
2022/01/24 02:39:51;;;;;;;;;45.50;41.00;;;;;4.91;65.12;102347.44;5076782;28;45478;-49
2022/01/24 02:53:23;;;;;;;;;37.50;30.00;;;;;4.82;65.44;102338.59;5076342;28;45575;-49
2022/01/24 02:55:49;;;;;;;;;42.75;39.25;;;;;4.88;65.39;102335.22;5076519;27;45844;-51
2022/01/24 02:58:16;;;;;;;;;37.75;37.25;;;;;4.85;65.63;102333.44;5076499;27;45382;-47
2022/01/24 03:00:44;;;;;;;;;40.50;38.00;;;;;4.88;64.82;102337.81;5076880;27;45435;-46
2022/01/24 03:03:10;;;;;;;;;46.50;39.25;;;;;4.91;65.26;102335.25;5076494;27;45412;-49
2022/01/24 03:05:35;;;;;;;;;46.75;40.50;;;;;4.90;65.18;102327.44;5076549;27;45507;-49
2022/01/24 03:08:01;;;;;;;;;50.00;41.50;;;;;4.82;64.85;102327.31;5076271;27;45400;-50
2022/01/24 03:10:39;;;;;;;;;43.25;32.25;;;;;4.83;65.22;102329.06;5076591;28;45469;-48
2022/01/24 03:15:44;;;;;;;;;41.25;38.00;;;;;4.84;65.15;102330.81;5076372;28;45475;-50
2022/01/24 03:18:12;;;;;;;;;43.25;40.75;;;;;4.65;65.42;102307.06;5076376;28;45432;-46
2022/01/24 03:20:39;;;;;;;;;43.25;40.00;;;;;4.82;65.41;102324.69;5071078;28;45495;-51
2022/01/24 03:23:05;;;;;;;;;40.75;38.25;;;;;4.79;65.07;102315.09;5057539;28;45499;-49
2022/01/24 03:25:30;;;;;;;;;38.25;34.75;;;;;4.77;65.46;102319.41;5075847;28;45399;-46
2022/01/24 03:27:56;;;;;;;;;47.00;40.00;;;;;4.77;65.28;102323.75;5076000;28;45395;-48
2022/01/24 03:30:23;;;;;;;;;51.75;42.75;;;;;4.78;65.48;102321.19;5076307;28;45418;-49
2022/01/24 03:32:49;;;;;;;;;46.75;39.75;;;;;4.75;65.81;102320.22;5076280;28;45677;-53
2022/01/24 03:35:16;;;;;;;;;41.00;36.25;;;;;4.77;65.28;102331.56;5076088;28;46688;-48
2022/01/24 03:37:42;;;;;;;;;42.50;39.25;;;;;4.74;65.08;102318.50;5076210;28;45458;-48
2022/01/24 03:40:08;;;;;;;;;36.75;31.75;;;;;4.69;65.43;102304.50;5075817;28;45413;-52
2022/01/24 03:42:34;;;;;;;;;42.25;39.00;;;;;4.72;65.73;102312.38;5076197;28;45465;-56
2022/01/24 03:45:01;;;;;;;;;43.25;37.00;;;;;4.68;65.35;102311.44;5075801;27;46349;-53
2022/01/24 03:49:58;;;;;;;;;36.00;34.25;;;;;4.69;65.65;102309.72;5075620;28;45445;-51
2022/01/24 03:52:23;;;;;;;;;44.50;38.75;;;;;4.64;65.57;102307.03;5075994;28;45430;-52
2022/01/24 03:54:49;;;;;;;;;45.50;39.50;;;;;4.58;65.67;102297.38;5075511;28;46393;-47
2022/01/24 03:57:17;;;;;;;;;43.75;36.50;;;;;4.69;65.56;102314.94;5075572;28;45356;-52
2022/01/24 03:59:43;;;;;;;;;39.25;36.75;;;;;4.67;65.82;102307.06;5075950;28;45376;-49
2022/01/24 04:02:10;;;;;;;;;46.25;38.75;;;;;4.67;65.68;102309.69;5075644;28;45512;-48
2022/01/24 04:04:35;;;;;;;;;40.25;39.75;;;;;4.65;64.95;102307.06;5075806;27;45555;-52
2022/01/24 04:07:01;;;;;;;;;35.50;34.50;;;;;4.66;65.77;102310.53;5075596;28;45403;-49
2022/01/24 04:09:26;;;;;;;;;39.75;39.50;;;;;4.61;65.40;102299.16;5075804;28;45472;-52
2022/01/24 04:11:55;;;;;;;;;45.50;38.25;;;;;4.63;65.45;102298.34;5075541;28;45436;-50
2022/01/24 04:14:28;;;;;;;;;38.00;33.75;;;;;4.63;65.68;102293.13;5075473;28;46478;-48
2022/01/24 04:17:08;;;;;;;;;45.75;36.50;;;;;4.61;65.44;102301.78;5075500;28;45411;-50
2022/01/24 04:22:09;;;;;;;;;45.25;36.25;;;;;4.59;65.34;102291.34;5057377;28;45411;-49
2022/01/24 04:24:35;;;;;;;;;37.50;37.50;;;;;4.54;65.80;102289.47;5055008;28;46575;-52
2022/01/24 04:27:00;;;;;;;;;43.00;37.50;;;;;4.53;65.20;102298.16;5055238;28;45471;-52
2022/01/24 04:29:25;;;;;;;;;34.25;30.50;;;;;4.48;65.42;102292.00;5055328;28;45426;-49
2022/01/24 04:31:51;;;;;;;;;42.75;40.00;;;;;4.49;65.82;102298.97;5062962;28;45382;-48
2022/01/24 04:34:16;;;;;;;;;41.00;36.25;;;;;4.47;65.39;102298.06;5075298;27;46415;-49
2022/01/24 04:36:41;;;;;;;;;49.00;36.50;;;;;4.47;65.46;102301.53;5075336;27;45441;-51
2022/01/24 04:39:07;;;;;;;;;46.00;37.00;;;;;4.43;65.95;102302.31;5075693;27;45405;-52
2022/01/24 04:41:37;;;;;;;;;42.00;38.00;;;;;4.46;65.64;102309.31;5075256;28;45650;-49
2022/01/24 04:44:27;;;;;;;;;41.00;39.75;;;;;4.44;65.75;102304.09;5074967;28;45566;-47
2022/01/24 04:47:17;;;;;;;;;46.25;40.75;;;;;4.42;66.03;102301.44;5075417;28;45393;-49
2022/01/24 04:52:53;;;;;;;;;34.75;31.75;;;;;4.40;65.47;102295.31;5012553;28;45503;-51
2022/01/24 04:55:18;;;;;;;;;45.25;36.75;;;;;4.40;65.55;102297.94;5064720;28;47327;-51
2022/01/24 04:57:46;;;;;;;;;43.00;40.00;;;;;4.41;66.53;102297.09;5075093;28;45405;-48
2022/01/24 05:00:12;;;;;;;;;47.75;40.50;;;;;4.38;65.52;102296.19;5075212;28;45394;-50
2022/01/24 05:02:38;;;;;;;;;38.75;36.75;;;;;4.34;65.41;102290.03;5074926;28;45381;-51
2022/01/24 05:05:05;;;;;;;;;40.50;36.00;;;;;4.35;66.02;102290.91;5075179;28;46077;-51
2022/01/24 05:07:31;;;;;;;;;41.25;39.00;;;;;4.38;66.16;102304.00;5078498;28;45447;-51
2022/01/24 05:10:05;;;;;;;;;43.50;39.50;;;;;4.39;66.58;102297.94;5078215;28;45470;-46
2022/01/24 05:25:55;;;;;;;;;44.75;36.25;;;;;4.33;65.67;102303.03;5077777;28;45939;-52
2022/01/24 05:28:21;;;;;;;;;32.50;30.25;;;;;4.32;66.38;102301.25;5077987;27;45443;-51
2022/01/24 05:30:47;;;;;;;;;44.00;34.50;;;;;4.35;66.47;102301.31;5078187;28;45479;-49
2022/01/24 05:33:13;;;;;;;;;42.75;33.75;;;;;4.28;65.37;102295.13;5077875;27;45408;-50
2022/01/24 05:35:38;;;;;;;;;46.75;38.75;;;;;4.36;66.21;102300.47;5077840;27;45388;-48
2022/01/24 05:38:04;;;;;;;;;41.50;33.00;;;;;4.30;65.89;102285.63;5077821;27;45447;-50
2022/01/24 05:40:29;;;;;;;;;41.50;36.25;;;;;4.33;65.89;102290.00;5077422;27;45387;-50
2022/01/24 05:42:55;;;;;;;;;43.75;39.25;;;;;4.39;66.01;102292.72;5077403;27;45357;-53
2022/01/24 05:45:20;;;;;;;;;44.25;38.50;;;;;4.28;65.94;102276.03;5077536;28;46408;-52
2022/01/24 05:47:45;;;;;;;;;46.00;39.00;;;;;4.32;66.14;102286.50;5077380;28;45448;-50
2022/01/24 05:50:11;;;;;;;;;47.75;36.25;;;;;4.32;66.16;102283.03;5077470;28;45361;-50
2022/01/24 05:52:36;;;;;;;;;38.00;35.75;;;;;4.34;65.91;102287.41;5076357;28;45596;-49
2022/01/24 05:55:03;;;;;;;;;39.25;38.75;;;;;4.36;65.81;102287.47;5077685;28;45601;-53
2022/01/24 05:57:29;;;;;;;;;44.25;38.25;;;;;4.38;66.24;102288.38;5077363;28;45463;-49
2022/01/24 05:59:54;;;;;;;;;41.75;39.50;;;;;4.34;65.81;102290.03;5076089;28;45507;-51
2022/01/24 06:02:20;;;;;;;;;40.00;36.25;;;;;4.41;66.28;102297.09;5076032;28;45569;-50
2022/01/24 06:04:45;;;;;;;;;44.25;39.25;;;;;4.42;65.47;102296.25;5077524;27;46001;-49
2022/01/24 06:07:11;;;;;;;;;40.25;33.75;;;;;4.41;65.49;102291.03;5077423;28;45496;-49
2022/01/24 06:09:36;;;;;;;;;47.25;39.75;;;;;4.41;65.75;102283.22;5077507;28;45407;-52
2022/01/24 06:12:01;;;;;;;;;46.50;41.00;;;;;4.43;65.89;102289.28;5077413;28;45469;-49
2022/01/24 06:14:27;;;;;;;;;36.75;36.25;;;;;4.43;65.39;102290.19;5076975;28;46329;-49
2022/01/24 06:16:52;;;;;;;;;42.00;39.50;;;;;4.38;66.02;102283.16;5077153;27;45480;-51
2022/01/24 06:19:17;;;;;;;;;42.50;38.00;;;;;4.40;65.24;102289.25;5077363;27;45406;-48
2022/01/24 06:21:45;;;;;;;;;34.00;30.50;;;;;4.28;66.17;102283.84;5076969;27;45574;-53
2022/01/24 06:24:11;;;;;;;;;44.25;39.50;;;;;4.31;65.60;102300.38;5077045;27;46433;-51
2022/01/24 06:26:37;;;;;;;;;44.00;39.25;;;;;4.33;66.32;102292.63;5077020;27;45403;-49
2022/01/24 06:29:03;;;;;;;;;46.75;39.75;;;;;4.30;65.85;102289.94;5077228;28;45506;-49
2022/01/24 06:31:28;;;;;;;;;54.50;39.50;;;;;4.32;65.84;102306.47;5076939;27;45613;-49
2022/01/24 06:33:53;;;;;;;;;41.50;38.50;;;;;4.31;65.69;102299.53;5076803;28;45373;-51
2022/01/24 06:36:19;;;;;;;;;38.00;33.25;;;;;4.33;65.95;102297.81;5076736;28;45379;-52
2022/01/24 06:38:44;;;;;;;;;42.75;38.75;;;;;4.34;65.42;102307.38;5077078;28;45562;-49
2022/01/24 06:41:10;;;;;;;;;44.00;41.25;;;;;4.36;65.52;102308.28;5076514;28;45433;-47
2022/01/24 06:43:35;;;;;;;;;55.25;42.75;;;;;4.37;66.15;102310.03;5076661;27;45454;-49
2022/01/24 06:46:01;;;;;;;;;47.50;43.00;;;;;4.36;65.97;102306.56;5076648;28;45498;-48
2022/01/24 06:48:27;;;;;;;;;44.75;38.75;;;;;4.36;66.50;102309.16;5076695;28;45425;-51
2022/01/24 06:50:53;;;;;;;;;45.25;38.50;;;;;4.27;66.06;102296.00;5066542;28;45635;-51
2022/01/24 06:53:18;;;;;;;;;46.25;40.75;;;;;4.38;65.65;102311.81;5073598;28;47066;-48
2022/01/24 06:55:44;;;;;;;;;47.75;41.50;;;;;4.40;65.62;102313.56;5076751;27;45510;-48
2022/01/24 06:58:09;;;;;;;;;45.75;40.00;;;;;4.44;66.32;102311.91;5076696;27;45449;-51
2022/01/24 07:00:34;;;;;;;;;47.00;40.50;;;;;4.46;66.09;102312.81;5076775;28;45372;-49
2022/01/24 07:03:00;;;;;;;;;53.75;44.50;;;;;4.49;65.74;102309.41;5076317;28;46454;-49
2022/01/24 07:05:27;;;;;;;;;42.75;37.50;;;;;4.46;65.52;102310.22;5076289;27;45455;-49
2022/01/24 07:07:56;;;;;;;;;47.00;40.00;;;;;4.47;65.38;102317.16;5076425;27;45443;-50
2022/01/24 07:10:22;;;;;;;;;45.50;39.00;;;;;4.46;65.82;102319.72;5076550;28;45408;-50
2022/01/24 07:12:48;;;;;;;;;64.00;50.25;;;;;4.43;65.53;102315.34;5073968;27;45599;-47
2022/01/24 07:15:16;;;;;;;;;41.25;37.00;;;;;4.39;66.04;102309.22;5074744;28;45513;-49
2022/01/24 07:20:16;;;;;;;;;44.50;38.75;;;;;4.39;65.46;102319.63;5061465;27;45404;-47
2022/01/24 07:22:41;;;;;;;;;34.50;33.25;;;;;4.29;65.93;102306.41;5075430;27;46009;-50
2022/01/24 07:25:07;;;;;;;;;45.50;38.25;;;;;4.34;65.13;102326.50;5068369;28;45436;-48
2022/01/24 07:27:32;;;;;;;;;54.00;43.00;;;;;4.31;66.10;102322.97;5055453;28;45415;-51
2022/01/24 07:29:58;;;;;;;;;41.50;36.50;;;;;4.27;65.13;102311.63;5055729;28;45320;-50
2022/01/24 07:32:23;;;;;;;;;38.25;35.25;;;;;4.28;65.94;102321.19;5055684;28;45569;-48
2022/01/24 07:34:50;;;;;;;;;43.00;39.00;;;;;4.24;65.61;102315.88;5060994;28;45369;-46
2022/01/24 07:37:15;;;;;;;;;35.00;33.75;;;;;4.23;65.37;102317.59;5055889;28;45463;-48
2022/01/24 07:39:41;;;;;;;;;43.00;39.25;;;;;4.24;65.66;102318.47;5069194;28;45633;-50
2022/01/24 07:42:15;;;;;;;;;44.00;40.50;;;;;4.24;65.21;102313.25;5064001;28;46717;-53
2022/01/24 07:44:41;;;;;;;;;45.25;36.25;;;;;4.23;65.52;102319.34;5075865;27;45561;-53
2022/01/24 07:47:06;;;;;;;;;44.75;40.75;;;;;4.23;66.34;102317.59;5061148;28;45452;-47
2022/01/24 07:49:32;;;;;;;;;39.00;35.25;;;;;4.15;66.01;102312.25;5062514;28;45776;-47
2022/01/24 07:51:57;;;;;;;;;47.75;36.75;;;;;4.13;66.02;102311.34;5075806;28;46024;-48
2022/01/24 07:54:23;;;;;;;;;42.00;37.00;;;;;4.12;66.12;102317.41;5066400;28;45490;-49
2022/01/24 07:56:48;;;;;;;;;43.25;35.25;;;;;4.12;66.54;102316.53;5071307;28;45476;-49
2022/01/24 07:59:15;;;;;;;;;42.25;39.75;;;;;4.17;65.58;102327.91;5075819;28;45633;-49
2022/01/24 08:01:41;;;;;;;;;40.50;38.25;;;;;4.15;66.41;102324.41;5072729;28;47325;-60
2022/01/24 08:04:07;;;;;;;;;38.50;32.00;;;;;4.15;66.35;102322.66;5053657;28;46674;-51
2022/01/24 08:06:32;;;;;;;;;42.50;39.75;;;;;4.22;66.19;102331.50;5055541;28;45505;-51
2022/01/24 08:08:58;;;;;;;;;44.25;39.50;;;;;4.24;67.41;102345.38;5061346;28;45606;-48
2022/01/24 08:11:23;;;;;;;;;46.50;40.00;;;;;4.26;66.15;102335.88;5068003;28;45540;-49
2022/01/24 08:13:49;;;;;;;;;46.00;42.25;;;;;4.30;65.16;102336.81;5073062;28;45446;-49
2022/01/24 08:16:15;;;;;;;;;32.00;25.50;;;;;4.31;65.79;102341.19;5069778;27;45478;-52
2022/01/24 08:18:40;;;;;;;;;46.50;39.00;;;;;4.34;65.18;102342.13;5066090;28;45496;-49
2022/01/24 08:21:06;;;;;;;;;51.50;43.50;;;;;4.32;65.44;102332.50;5073572;28;47541;-47
2022/01/24 08:23:31;;;;;;;;;38.00;38.00;;;;;4.31;65.53;102329.03;5056038;27;45450;-52
2022/01/24 08:25:56;;;;;;;;;46.00;40.50;;;;;4.32;65.07;102335.13;5054856;28;45365;-51
2022/01/24 08:28:22;;;;;;;;;47.00;41.00;;;;;4.36;65.37;102335.22;5055267;28;45616;-49
2022/01/24 08:30:48;;;;;;;;;52.25;44.25;;;;;4.46;65.97;102343.19;5072501;27;46312;-51
2022/01/24 08:33:13;;;;;;;;;49.00;42.75;;;;;4.51;65.37;102345.00;5074853;27;45474;-51
2022/01/24 08:35:39;;;;;;;;;48.50;39.50;;;;;4.53;64.56;102340.72;5061858;27;45837;-48
2022/01/24 08:38:04;;;;;;;;;40.50;37.25;;;;;4.58;64.98;102349.50;5054808;28;45405;-47
2022/01/24 08:40:32;;;;;;;;;53.25;44.00;;;;;4.60;64.71;102341.72;5055634;28;45461;-49
2022/01/24 08:43:04;;;;;;;;;49.75;42.75;;;;;4.62;64.57;102353.94;5058560;28;45526;-46
2022/01/24 08:48:09;;;;;;;;;43.00;40.00;;;;;4.57;64.23;102355.56;5076929;28;45407;-48
2022/01/24 08:50:35;;;;;;;;;47.25;42.25;;;;;4.57;65.17;102355.56;5078563;27;46653;-48
2022/01/24 08:53:03;;;;;;;;;43.00;39.25;;;;;4.53;64.82;102352.88;5078446;28;45435;-48
2022/01/24 08:55:29;;;;;;;;;51.00;41.75;;;;;4.55;64.75;102343.38;5078467;27;45404;-49
2022/01/24 08:57:57;;;;;;;;;54.00;43.00;;;;;4.63;64.49;102358.28;5078368;27;45398;-51
2022/01/24 09:00:23;;;;;;;;;46.25;39.50;;;;;4.64;64.28;102362.63;5078090;27;45384;-51
2022/01/24 09:02:50;;;;;;;;;43.25;32.50;;;;;4.62;64.46;102360.84;5078030;28;45311;-52
2022/01/24 09:05:17;;;;;;;;;45.50;40.00;;;;;4.64;64.69;102357.41;5078149;27;45396;-48
2022/01/24 09:07:44;;;;;;;;;53.25;44.00;;;;;4.70;64.15;102363.59;5078666;28;45569;-49
2022/01/24 09:10:10;;;;;;;;;47.25;38.00;;;;;4.73;64.52;102358.41;5078424;28;45526;-50
2022/01/24 09:12:35;;;;;;;;;51.25;42.00;;;;;4.73;64.40;102358.41;5078255;28;45988;-48
2022/01/24 09:15:00;;;;;;;;;47.00;41.75;;;;;4.80;64.03;102362.91;5078494;28;45817;-49
2022/01/24 09:17:26;;;;;;;;;44.25;41.50;;;;;4.83;63.69;102366.41;5078392;28;45539;-48
2022/01/24 09:19:51;;;;;;;;;46.00;37.00;;;;;4.87;63.83;102364.75;5078327;27;46413;-50
2022/01/24 09:22:16;;;;;;;;;45.00;41.00;;;;;4.90;63.80;102371.75;5077916;28;45463;-51
2022/01/24 09:24:42;;;;;;;;;45.00;39.75;;;;;4.93;64.05;102374.41;5078156;27;45526;-48
2022/01/24 09:27:07;;;;;;;;;46.75;38.75;;;;;4.92;63.43;102373.53;5078024;27;45309;-49
2022/01/24 09:29:32;;;;;;;;;46.25;41.25;;;;;4.92;63.83;102367.44;5077987;27;46292;-47
2022/01/24 09:31:58;;;;;;;;;47.50;41.75;;;;;4.93;63.57;102358.78;5077834;28;45414;-50
2022/01/24 09:34:24;;;;;;;;;46.00;40.75;;;;;5.01;63.75;102365.84;5078131;27;45364;-47
2022/01/24 09:36:50;;;;;;;;;44.25;41.50;;;;;5.07;63.44;102372.91;5076696;28;45688;-48
2022/01/24 09:39:17;;;;;;;;;55.00;45.00;;;;;5.08;63.48;102369.44;5077441;28;45523;-48
2022/01/24 09:41:44;;;;;;;;;50.00;42.25;;;;;5.08;63.31;102366.84;5077579;28;45423;-50
2022/01/24 09:44:10;;;;;;;;;47.00;42.25;;;;;5.13;63.44;102357.38;5077864;28;45405;-47
2022/01/24 09:46:37;;;;;;;;;46.25;40.25;;;;;5.24;62.57;102370.56;5077998;28;45453;-50
2022/01/24 09:49:04;;;;;;;;;53.50;42.75;;;;;5.25;63.18;102373.19;5077705;27;46448;-51
2022/01/24 09:51:29;;;;;;;;;60.25;44.50;;;;;5.26;63.02;102368.84;5077444;28;45402;-51
2022/01/24 09:53:55;;;;;;;;;48.75;41.50;;;;;5.32;62.93;102367.22;5077725;27;45754;-48
2022/01/24 09:56:21;;;;;;;;;52.00;42.50;;;;;5.22;63.06;102349.66;5077380;28;45570;-49
2022/01/24 09:58:46;;;;;;;;;48.75;42.00;;;;;5.39;62.61;102375.13;5077265;28;46296;-49
2022/01/24 10:01:13;;;;;;;;;48.75;43.00;;;;;5.39;62.72;102370.78;5077557;27;45442;-51
2022/01/24 10:03:39;;;;;;;;;48.00;42.00;;;;;5.47;62.50;102379.59;5077384;28;45493;-51
2022/01/24 10:06:04;;;;;;;;;47.25;42.25;;;;;5.48;62.44;102370.03;5077666;28;45469;-50
2022/01/24 10:08:31;;;;;;;;;56.25;46.50;;;;;5.56;62.15;102376.22;5076108;28;45436;-54
2022/01/24 10:11:01;;;;;;;;;47.50;42.50;;;;;5.64;62.33;102381.56;5077328;28;45516;-53
2022/01/24 10:19:07;;;;;;;;;52.00;43.25;;;;;5.76;61.95;102376.50;5077264;27;45486;-49
2022/01/24 10:21:41;;;;;;;;;51.25;43.00;;;;;5.71;61.56;102366.00;5076871;27;45455;-50
2022/01/24 10:24:07;;;;;;;;;48.25;42.25;;;;;5.80;61.70;102375.69;5075822;28;45427;-49
2022/01/24 10:26:32;;;;;;;;;47.00;42.00;;;;;5.74;61.32;102358.22;5077331;27;45423;-50
2022/01/24 10:28:58;;;;;;;;;51.50;42.00;;;;;5.80;61.51;102360.00;5076792;27;46021;-50
2022/01/24 10:31:28;;;;;;;;;51.25;42.00;;;;;5.86;61.82;102359.25;5076996;27;45515;-52
2022/01/24 10:33:54;;;;;;;;;56.75;42.50;;;;;5.89;61.68;102365.38;5075759;28;45391;-49
2022/01/24 10:36:36;;;;;;;;;45.75;42.00;;;;;5.95;61.85;102364.59;5077022;28;45448;-49
2022/01/24 10:39:07;;;;;;;;;41.25;39.75;;;;;5.98;61.12;102370.72;5076879;28;45432;-52
2022/01/24 10:41:55;;;;;;;;;52.50;42.75;;;;;6.03;61.04;102368.19;5076761;28;45417;-48
2022/01/24 10:44:33;;;;;;;;;47.00;41.00;;;;;6.08;61.10;102365.63;5076386;28;45380;-51
2022/01/24 10:47:14;;;;;;;;;43.50;39.00;;;;;6.10;60.99;102362.19;5076618;28;45440;-48
2022/01/24 10:49:41;;;;;;;;;59.50;43.75;;;;;6.11;61.08;102355.22;5076817;28;46062;-47
2022/01/24 10:52:11;;;;;;;;;51.00;42.75;;;;;6.16;60.55;102348.31;5076757;28;45444;-53
2022/01/24 10:54:37;;;;;;;;;48.50;42.00;;;;;6.19;60.93;102349.22;5076891;28;45420;-49
2022/01/24 10:57:03;;;;;;;;;45.00;36.75;;;;;6.20;60.76;102342.25;5076590;28;45708;-51
2022/01/24 10:59:28;;;;;;;;;48.00;41.25;;;;;6.20;60.52;102334.41;5076512;28;45536;-48
2022/01/24 11:01:58;;;;;;;;;44.25;37.75;;;;;6.17;60.62;102337.00;5059822;28;45409;-45
2022/01/24 11:04:29;;;;;;;;;45.75;40.50;;;;;6.15;60.28;102336.09;5054944;28;45322;-48
2022/01/24 11:06:56;;;;;;;;;45.50;41.25;;;;;6.13;60.58;102333.47;5055062;28;45387;-47
2022/01/24 11:09:27;;;;;;;;;49.25;40.50;;;;;6.11;60.37;102331.72;5056270;28;45687;-47
2022/01/24 11:11:55;;;;;;;;;45.50;39.00;;;;;6.12;60.83;102339.53;5055968;28;45456;-48
2022/01/24 11:14:23;;;;;;;;;49.25;41.75;;;;;6.09;60.98;102328.19;5056091;28;45429;-49
2022/01/24 11:16:49;;;;;;;;;49.00;43.00;;;;;6.13;60.67;102330.88;5056065;28;45531;-50
2022/01/24 11:19:21;;;;;;;;;46.00;39.00;;;;;6.14;60.51;102324.78;5056036;28;46204;-50
2022/01/24 11:21:46;;;;;;;;;44.25;40.50;;;;;6.20;60.42;102321.34;5055775;28;45462;-52
2022/01/24 11:24:18;;;;;;;;;43.50;39.75;;;;;6.21;60.15;102320.50;5055614;28;45451;-47
2022/01/24 11:26:45;;;;;;;;;45.75;40.50;;;;;6.22;59.61;102323.97;5054691;28;45587;-48
2022/01/24 11:29:11;;;;;;;;;49.00;40.50;;;;;6.22;59.90;102317.00;5054590;28;46357;-50
2022/01/24 11:31:49;;;;;;;;;43.75;40.50;;;;;6.26;60.21;102316.19;5055536;28;45427;-47
2022/01/24 11:34:48;;;;;;;;;39.25;38.00;;;;;6.30;59.89;102317.97;5054732;28;45424;-52
2022/01/24 11:37:30;;;;;;;;;43.75;41.25;;;;;6.30;59.79;102324.94;5047917;28;45705;-49
2022/01/24 11:39:55;;;;;;;;;42.25;38.25;;;;;6.28;59.99;102314.47;5055411;28;45739;-47
2022/01/24 11:42:29;;;;;;;;;46.50;37.00;;;;;6.26;59.58;102320.53;5055411;28;45678;-50
2022/01/24 11:44:56;;;;;;;;;53.00;42.25;;;;;6.21;60.13;102304.81;5055376;28;45501;-49
2022/01/24 11:47:23;;;;;;;;;35.25;34.75;;;;;6.28;59.79;102310.97;5055100;28;45425;-51
2022/01/24 11:49:54;;;;;;;;;50.25;43.75;;;;;6.31;59.85;102311.88;5055009;28;45504;-52
2022/01/24 11:52:27;;;;;;;;;40.25;39.25;;;;;6.33;60.10;102312.75;5054741;28;45478;-50
2022/01/24 11:55:06;;;;;;;;;44.00;38.75;;;;;6.38;59.86;102307.59;5055271;28;45418;-47
2022/01/24 11:57:37;;;;;;;;;47.75;41.75;;;;;6.39;59.48;102310.25;5053943;28;45495;-49
2022/01/24 12:00:05;;;;;;;;;46.50;42.50;;;;;6.44;59.56;102305.03;5055215;28;45374;-53
2022/01/24 12:02:41;;;;;;;;;51.25;44.75;;;;;6.45;60.07;102301.56;5055316;28;45487;-51
2022/01/24 12:05:20;;;;;;;;;52.25;43.75;;;;;6.49;59.50;102305.06;5055315;28;45432;-47
2022/01/24 12:07:53;;;;;;;;;51.00;39.75;;;;;6.51;59.79;102306.84;5055310;28;45469;-51
2022/01/24 12:10:58;;;;;;;;;46.75;41.00;;;;;6.54;59.58;102308.63;5054950;28;46145;-51
2022/01/24 12:13:22;;;;;;;;;46.75;40.25;;;;;6.57;59.41;102309.50;5053767;28;45431;-47
2022/01/24 12:15:53;;;;;;;;;41.50;40.25;;;;;6.59;59.79;102299.94;5040745;28;45351;-54
2022/01/24 12:18:42;;;;;;;;;44.25;41.25;;;;;6.63;59.53;102299.09;5058698;28;45441;-50
2022/01/24 12:21:08;;;;;;;;;44.75;37.50;;;;;6.65;58.88;102301.72;5058545;28;46099;-46
2022/01/24 12:23:42;;;;;;;;;41.25;38.00;;;;;6.61;59.22;102297.34;5058000;28;45417;-48
2022/01/24 12:26:19;;;;;;;;;42.25;34.50;;;;;6.70;58.85;102296.56;5076442;28;45590;-46
2022/01/24 12:28:48;;;;;;;;;42.75;40.25;;;;;6.73;58.89;102294.81;5077389;28;45481;-48
2022/01/24 12:31:25;;;;;;;;;50.50;41.25;;;;;6.82;59.08;102294.00;5078050;27;45481;-45
2022/01/24 12:33:54;;;;;;;;;46.00;40.75;;;;;6.89;58.25;102292.34;5077547;27;45441;-47
2022/01/24 12:36:38;;;;;;;;;37.25;34.50;;;;;6.91;58.14;102296.72;5075869;28;45499;-49
2022/01/24 12:39:32;;;;;;;;;46.25;39.50;;;;;6.98;57.52;102295.88;5078163;27;45586;-50
2022/01/24 12:42:06;;;;;;;;;46.25;42.50;;;;;7.05;58.11;102288.97;5078304;27;46112;-51
2022/01/24 12:47:07;;;;;;;;;44.25;38.00;;;;;7.19;58.15;102276.81;5077772;27;45417;-50
2022/01/24 12:49:32;;;;;;;;;40.75;36.00;;;;;7.33;57.14;102284.75;5078302;27;45425;-47
2022/01/24 12:52:07;;;;;;;;;41.75;37.00;;;;;7.42;57.44;102273.47;5073240;27;45472;-50
2022/01/24 12:54:35;;;;;;;;;45.75;38.00;;;;;7.57;56.71;102281.38;5059134;28;45409;-50
2022/01/24 12:57:04;;;;;;;;;50.00;43.25;;;;;7.61;56.95;102277.03;5060883;28;45460;-49
2022/01/24 12:59:29;;;;;;;;;45.50;39.25;;;;;7.67;56.83;102270.06;5077152;27;45468;-48
2022/01/24 13:01:57;;;;;;;;;44.00;39.50;;;;;7.77;56.67;102275.34;5077735;27;45377;-46
2022/01/24 13:04:37;;;;;;;;;41.00;37.75;;;;;7.88;56.52;102284.13;5077826;27;45473;-48
2022/01/24 13:07:04;;;;;;;;;37.50;33.75;;;;;7.93;56.01;102275.38;5076714;28;45373;-47
2022/01/24 13:09:30;;;;;;;;;42.00;38.75;;;;;7.99;56.82;102277.16;5077849;27;45327;-50